Lower Bayble, United Kingdom

7:29 AM GMT on December 11, 2017 (GMT +0000)
Sheshader | | Change Station

Elev 148 ft 58.23 °N, 6.17 °W | Updated 2 seconds ago

Partly Cloudy
Partly Cloudy
41.5 °F
Feels Like 33 °F
N
17.0
Wind Variable Wind from WSW
Gusts 17.0 mph

Today
High -- | Low -- °F
--% Chance of Precip.
Yesterday
High -- | Low -- °F
Precip. -- in
Pressure 29.24 in
Visibility 6.2 miles
Clouds Few 800 ft
Few 1200 ft
Windchill 33 °F
Dew Point 39 °F
Humidity 89%
Rainfall 0.03 in
Snow Depth Not available.
9:01 AM 3:34 PM
Last Quarter, 40% visible
METAR EGPO 110720Z 35012KT 9999 VCSH FEW008 FEW012CB 03/01 Q0990
Pressure 29.24 in
Visibility 6.2 miles
Clouds Few 800 ft
Few 1200 ft
Windchill 33 °F
Dew Point 39 °F
Humidity 89%
Rainfall 0.03 in
Snow Depth Not available.
9:01 AM 3:34 PM
Last Quarter, 40% visible
METAR EGPO 110720Z 35012KT 9999 VCSH FEW008 FEW012CB 03/01 Q0990

Get Severe Weather Alerts

Thanks for signing up!

Be on the lookout for a verification email in your inbox.

You'll start receiving the daily forecast at 6 AM.

×

10-Day Weather Forecast

×

Almanac

Astronomy

Dec. 11, 2017 Rise Set
Actual Time
Civil Twilight
Nautical Twilight
Astronomical Twilight
Moon
Length of Visible Light
Length of Day
Tomorrow will be .
, % of the Moon is Illuminated

Today's Extremes

Country Highs Country Lows

Community

WunderPhotos

Category 6

Welcome to Category 6. This is the collective home for Weather Underground's featured writeups by Dr. Jeff Masters (right), Bob Henson (left), Chris Burt, and other regular contributors.

Nearby

Air Quality

  Air Quality AQ Index Pollutant
Not available.

Snow Depth

Station Depth Elevation

Earthquake Activity

City Distance Mag. Time & Date
Minimum magnitude displayed is 2.5.

Coastal Water Temperatures

Place Temperature

Stations

Nearby Weather Stations

Station Location Temp. Windchill Dew Point Humidity Wind Precip. Elev Updated Type